sensor_id;sensor_type;location;lat;lon;timestamp;temperature;humidity
62555;DHT22;48610;52.144;8.624;2023-06-26T00:10:19;22.00;99.90
62555;DHT22;48610;52.144;8.624;2023-06-26T00:13:19;22.00;99.90
62555;DHT22;48610;52.144;8.624;2023-06-26T00:16:20;21.90;99.90
62555;DHT22;48610;52.144;8.624;2023-06-26T00:19:20;21.90;99.90
62555;DHT22;48610;52.144;8.624;2023-06-26T00:22:21;21.90;99.90
62555;DHT22;48610;52.144;8.624;2023-06-26T00:25:22;21.80;99.90
62555;DHT22;48610;52.144;8.624;2023-06-26T00:28:22;21.80;99.90
62555;DHT22;48610;52.144;8.624;2023-06-26T00:31:23;21.80;99.90
62555;DHT22;48610;52.144;8.624;2023-06-26T00:34:23;21.70;99.90
62555;DHT22;48610;52.144;8.624;2023-06-26T00:37:24;21.70;99.90
62555;DHT22;48610;52.144;8.624;2023-06-26T00:40:25;21.60;99.90
62555;DHT22;48610;52.144;8.624;2023-06-26T00:43:27;21.70;99.90
62555;DHT22;48610;52.144;8.624;2023-06-26T00:46:27;21.80;99.90
62555;DHT22;48610;52.144;8.624;2023-06-26T00:49:28;21.80;99.90
62555;DHT22;48610;52.144;8.624;2023-06-26T00:52:29;21.60;99.90
62555;DHT22;48610;52.144;8.624;2023-06-26T00:55:29;21.70;99.90
62555;DHT22;48610;52.144;8.624;2023-06-26T00:58:30;21.60;99.90
62555;DHT22;48610;52.144;8.624;2023-06-26T01:01:31;21.60;99.90
62555;DHT22;48610;52.144;8.624;2023-06-26T01:04:32;21.40;99.90
62555;DHT22;48610;52.144;8.624;2023-06-26T01:07:34;21.40;99.90
62555;DHT22;48610;52.144;8.624;2023-06-26T01:10:36;21.30;99.90
62555;DHT22;48610;52.144;8.624;2023-06-26T01:13:37;21.40;99.90
62555;DHT22;48610;52.144;8.624;2023-06-26T01:16:39;21.30;99.90
62555;DHT22;48610;52.144;8.624;2023-06-26T01:19:41;21.40;99.90
62555;DHT22;48610;52.144;8.624;2023-06-26T01:22:55;21.40;99.90
62555;DHT22;48610;52.144;8.624;2023-06-26T01:26:13;21.30;99.90
62555;DHT22;48610;52.144;8.624;2023-06-26T01:29:16;21.30;99.90
62555;DHT22;48610;52.144;8.624;2023-06-26T01:32:19;21.30;99.90
62555;DHT22;48610;52.144;8.624;2023-06-26T01:35:19;21.30;99.90
62555;DHT22;48610;52.144;8.624;2023-06-26T01:38:21;21.30;99.90
62555;DHT22;48610;52.144;8.624;2023-06-26T01:41:23;21.20;99.90
62555;DHT22;48610;52.144;8.624;2023-06-26T01:44:29;21.30;99.90
62555;DHT22;48610;52.144;8.624;2023-06-26T01:47:32;21.20;99.90
62555;DHT22;48610;52.144;8.624;2023-06-26T01:50:35;21.20;99.90
62555;DHT22;48610;52.144;8.624;2023-06-26T01:53:40;21.20;99.90
62555;DHT22;48610;52.144;8.624;2023-06-26T01:56:43;21.20;99.90
62555;DHT22;48610;52.144;8.624;2023-06-26T01:59:46;21.10;99.90
62555;DHT22;48610;52.144;8.624;2023-06-26T02:02:47;21.10;99.90
62555;DHT22;48610;52.144;8.624;2023-06-26T02:05:48;21.10;99.90
62555;DHT22;48610;52.144;8.624;2023-06-26T02:08:48;21.00;99.90
62555;DHT22;48610;52.144;8.624;2023-06-26T02:11:49;21.00;99.90
62555;DHT22;48610;52.144;8.624;2023-06-26T02:14:50;21.00;99.90
62555;DHT22;48610;52.144;8.624;2023-06-26T02:17:51;21.00;99.90
62555;DHT22;48610;52.144;8.624;2023-06-26T02:20:52;20.90;99.90
62555;DHT22;48610;52.144;8.624;2023-06-26T02:23:52;20.70;99.90
62555;DHT22;48610;52.144;8.624;2023-06-26T02:26:53;20.70;99.90
62555;DHT22;48610;52.144;8.624;2023-06-26T02:29:53;20.70;99.90
62555;DHT22;48610;52.144;8.624;2023-06-26T02:32:54;20.80;99.90
62555;DHT22;48610;52.144;8.624;2023-06-26T02:35:54;20.80;99.90
62555;DHT22;48610;52.144;8.624;2023-06-26T02:38:55;20.70;99.90
62555;DHT22;48610;52.144;8.624;2023-06-26T02:41:56;20.80;99.90
62555;DHT22;48610;52.144;8.624;2023-06-26T02:44:56;21.00;99.90
62555;DHT22;48610;52.144;8.624;2023-06-26T02:47:57;21.00;99.90
62555;DHT22;48610;52.144;8.624;2023-06-26T02:50:59;21.00;99.90
62555;DHT22;48610;52.144;8.624;2023-06-26T02:53:59;21.00;99.90
62555;DHT22;48610;52.144;8.624;2023-06-26T02:57:01;20.90;99.90
62555;DHT22;48610;52.144;8.624;2023-06-26T03:00:01;20.80;99.90
62555;DHT22;48610;52.144;8.624;2023-06-26T03:03:03;20.90;99.90
62555;DHT22;48610;52.144;8.624;2023-06-26T03:06:04;20.90;99.90
62555;DHT22;48610;52.144;8.624;2023-06-26T03:09:04;21.00;99.90
62555;DHT22;48610;52.144;8.624;2023-06-26T03:12:05;20.90;99.90
62555;DHT22;48610;52.144;8.624;2023-06-26T03:15:06;21.00;99.90
62555;DHT22;48610;52.144;8.624;2023-06-26T03:18:07;20.80;99.90
62555;DHT22;48610;52.144;8.624;2023-06-26T03:21:09;20.90;99.90
62555;DHT22;48610;52.144;8.624;2023-06-26T03:24:10;20.80;99.90
62555;DHT22;48610;52.144;8.624;2023-06-26T03:27:11;20.80;99.90
62555;DHT22;48610;52.144;8.624;2023-06-26T03:30:12;20.80;99.90
62555;DHT22;48610;52.144;8.624;2023-06-26T03:33:13;20.70;99.90
62555;DHT22;48610;52.144;8.624;2023-06-26T03:36:13;20.70;99.90
62555;DHT22;48610;52.144;8.624;2023-06-26T03:39:14;20.70;99.90
62555;DHT22;48610;52.144;8.624;2023-06-26T03:42:15;20.60;99.90
62555;DHT22;48610;52.144;8.624;2023-06-26T03:45:15;20.60;99.90
62555;DHT22;48610;52.144;8.624;2023-06-26T03:48:16;20.60;99.90
62555;DHT22;48610;52.144;8.624;2023-06-26T03:51:16;20.60;99.90
62555;DHT22;48610;52.144;8.624;2023-06-26T03:54:17;20.50;99.90
62555;DHT22;48610;52.144;8.624;2023-06-26T03:57:17;20.50;99.90
62555;DHT22;48610;52.144;8.624;2023-06-26T04:00:18;20.50;99.90
62555;DHT22;48610;52.144;8.624;2023-06-26T04:03:19;20.60;99.90
62555;DHT22;48610;52.144;8.624;2023-06-26T04:06:19;20.60;99.90
62555;DHT22;48610;52.144;8.624;2023-06-26T04:09:20;20.60;99.90
62555;DHT22;48610;52.144;8.624;2023-06-26T04:12:20;20.70;99.90
62555;DHT22;48610;52.144;8.624;2023-06-26T04:15:21;20.70;99.90
62555;DHT22;48610;52.144;8.624;2023-06-26T04:18:22;20.80;99.90
62555;DHT22;48610;52.144;8.624;2023-06-26T04:21:23;20.90;99.90
62555;DHT22;48610;52.144;8.624;2023-06-26T04:24:25;20.80;99.90
62555;DHT22;48610;52.144;8.624;2023-06-26T04:27:25;20.90;99.90
62555;DHT22;48610;52.144;8.624;2023-06-26T04:30:26;20.90;99.90
62555;DHT22;48610;52.144;8.624;2023-06-26T04:33:27;20.90;99.90
62555;DHT22;48610;52.144;8.624;2023-06-26T04:36:28;21.00;99.90
62555;DHT22;48610;52.144;8.624;2023-06-26T04:39:28;21.00;99.90
62555;DHT22;48610;52.144;8.624;2023-06-26T04:42:29;21.00;99.90
62555;DHT22;48610;52.144;8.624;2023-06-26T04:45:30;20.90;99.90
62555;DHT22;48610;52.144;8.624;2023-06-26T04:48:30;21.00;99.90
62555;DHT22;48610;52.144;8.624;2023-06-26T04:51:31;20.90;99.90
62555;DHT22;48610;52.144;8.624;2023-06-26T04:54:32;21.30;99.90
62555;DHT22;48610;52.144;8.624;2023-06-26T04:57:32;21.20;99.90
62555;DHT22;48610;52.144;8.624;2023-06-26T05:00:33;21.50;99.90
62555;DHT22;48610;52.144;8.624;2023-06-26T05:03:36;21.10;99.90
62555;DHT22;48610;52.144;8.624;2023-06-26T05:06:37;21.20;99.90
62555;DHT22;48610;52.144;8.624;2023-06-26T05:09:37;21.30;99.90
62555;DHT22;48610;52.144;8.624;2023-06-26T05:12:38;21.40;99.90
62555;DHT22;48610;52.144;8.624;2023-06-26T05:15:39;21.20;99.90
62555;DHT22;48610;52.144;8.624;2023-06-26T05:18:39;21.30;99.90
62555;DHT22;48610;52.144;8.624;2023-06-26T05:21:40;21.50;99.90
62555;DHT22;48610;52.144;8.624;2023-06-26T05:24:42;21.70;99.90
62555;DHT22;48610;52.144;8.624;2023-06-26T05:27:43;21.90;99.90
62555;DHT22;48610;52.144;8.624;2023-06-26T05:30:43;21.90;99.90
62555;DHT22;48610;52.144;8.624;2023-06-26T05:33:44;22.10;99.90
62555;DHT22;48610;52.144;8.624;2023-06-26T05:36:47;22.30;99.90
62555;DHT22;48610;52.144;8.624;2023-06-26T05:39:50;22.50;99.90
62555;DHT22;48610;52.144;8.624;2023-06-26T05:42:51;22.40;99.90
62555;DHT22;48610;52.144;8.624;2023-06-26T05:45:52;22.50;99.90
62555;DHT22;48610;52.144;8.624;2023-06-26T05:48:52;22.50;99.90
62555;DHT22;48610;52.144;8.624;2023-06-26T05:51:53;22.60;99.90
62555;DHT22;48610;52.144;8.624;2023-06-26T05:54:54;22.60;99.90
62555;DHT22;48610;52.144;8.624;2023-06-26T05:57:57;22.70;99.90
62555;DHT22;48610;52.144;8.624;2023-06-26T06:00:58;22.80;99.90
62555;DHT22;48610;52.144;8.624;2023-06-26T06:03:58;23.00;99.90
62555;DHT22;48610;52.144;8.624;2023-06-26T06:06:59;23.20;99.90
62555;DHT22;48610;52.144;8.624;2023-06-26T06:10:00;23.30;99.90
62555;DHT22;48610;52.144;8.624;2023-06-26T06:13:01;23.40;99.90
62555;DHT22;48610;52.144;8.624;2023-06-26T06:16:01;23.50;99.90
62555;DHT22;48610;52.144;8.624;2023-06-26T06:19:02;23.60;99.90
62555;DHT22;48610;52.144;8.624;2023-06-26T06:22:03;23.60;99.90
62555;DHT22;48610;52.144;8.624;2023-06-26T06:25:04;23.70;99.90
62555;DHT22;48610;52.144;8.624;2023-06-26T06:28:05;23.60;99.90
62555;DHT22;48610;52.144;8.624;2023-06-26T06:31:06;23.60;99.90
62555;DHT22;48610;52.144;8.624;2023-06-26T06:34:06;23.50;99.90
62555;DHT22;48610;52.144;8.624;2023-06-26T06:37:07;23.50;99.90
62555;DHT22;48610;52.144;8.624;2023-06-26T06:40:09;23.50;99.90
62555;DHT22;48610;52.144;8.624;2023-06-26T06:43:10;23.50;99.90
62555;DHT22;48610;52.144;8.624;2023-06-26T06:46:11;23.60;99.90
62555;DHT22;48610;52.144;8.624;2023-06-26T06:49:11;23.80;99.90
62555;DHT22;48610;52.144;8.624;2023-06-26T06:52:12;24.00;99.90
62555;DHT22;48610;52.144;8.624;2023-06-26T06:55:12;24.40;99.90
62555;DHT22;48610;52.144;8.624;2023-06-26T06:58:13;24.40;99.90
62555;DHT22;48610;52.144;8.624;2023-06-26T07:01:14;24.50;99.90
62555;DHT22;48610;52.144;8.624;2023-06-26T07:04:14;24.10;99.90
62555;DHT22;48610;52.144;8.624;2023-06-26T07:07:18;23.80;99.90
62555;DHT22;48610;52.144;8.624;2023-06-26T07:10:19;23.80;99.90
62555;DHT22;48610;52.144;8.624;2023-06-26T07:13:19;23.80;99.90
62555;DHT22;48610;52.144;8.624;2023-06-26T07:16:20;23.80;99.90
62555;DHT22;48610;52.144;8.624;2023-06-26T07:19:21;23.90;99.90
62555;DHT22;48610;52.144;8.624;2023-06-26T07:22:22;24.00;99.90
62555;DHT22;48610;52.144;8.624;2023-06-26T07:25:22;24.10;99.90
62555;DHT22;48610;52.144;8.624;2023-06-26T07:28:23;23.90;99.90
62555;DHT22;48610;52.144;8.624;2023-06-26T07:31:24;24.00;99.90
62555;DHT22;48610;52.144;8.624;2023-06-26T07:34:24;24.00;99.90
62555;DHT22;48610;52.144;8.624;2023-06-26T07:37:25;24.10;99.90
62555;DHT22;48610;52.144;8.624;2023-06-26T07:40:26;24.40;99.90
62555;DHT22;48610;52.144;8.624;2023-06-26T07:43:27;24.50;99.90
62555;DHT22;48610;52.144;8.624;2023-06-26T07:46:28;24.20;99.90
62555;DHT22;48610;52.144;8.624;2023-06-26T07:49:28;23.90;99.90
62555;DHT22;48610;52.144;8.624;2023-06-26T07:52:29;23.90;99.90
62555;DHT22;48610;52.144;8.624;2023-06-26T07:55:30;23.70;99.90
62555;DHT22;48610;52.144;8.624;2023-06-26T07:58:31;23.60;99.90
62555;DHT22;48610;52.144;8.624;2023-06-26T08:01:32;23.60;99.90
62555;DHT22;48610;52.144;8.624;2023-06-26T08:04:32;23.60;99.90
62555;DHT22;48610;52.144;8.624;2023-06-26T08:07:34;23.70;99.90
62555;DHT22;48610;52.144;8.624;2023-06-26T08:10:34;23.70;99.90
62555;DHT22;48610;52.144;8.624;2023-06-26T08:13:35;23.80;99.90
62555;DHT22;48610;52.144;8.624;2023-06-26T08:16:35;23.80;99.90
62555;DHT22;48610;52.144;8.624;2023-06-26T08:19:36;23.80;99.90
62555;DHT22;48610;52.144;8.624;2023-06-26T08:22:36;23.90;99.90
62555;DHT22;48610;52.144;8.624;2023-06-26T08:25:37;23.70;99.90
62555;DHT22;48610;52.144;8.624;2023-06-26T08:28:37;23.70;99.90
62555;DHT22;48610;52.144;8.624;2023-06-26T08:31:39;23.50;99.90
62555;DHT22;48610;52.144;8.624;2023-06-26T08:34:40;23.40;99.90
62555;DHT22;48610;52.144;8.624;2023-06-26T08:37:40;23.20;99.90
62555;DHT22;48610;52.144;8.624;2023-06-26T08:40:41;23.30;99.90
62555;DHT22;48610;52.144;8.624;2023-06-26T08:43:41;23.10;99.90
62555;DHT22;48610;52.144;8.624;2023-06-26T08:46:43;23.00;99.90
62555;DHT22;48610;52.144;8.624;2023-06-26T08:49:56;22.90;99.90
62555;DHT22;48610;52.144;8.624;2023-06-26T08:53:02;22.90;99.90
62555;DHT22;48610;52.144;8.624;2023-06-26T08:56:06;23.00;99.90
62555;DHT22;48610;52.144;8.624;2023-06-26T08:59:07;23.20;99.90
62555;DHT22;48610;52.144;8.624;2023-06-26T09:02:10;23.40;99.90
62555;DHT22;48610;52.144;8.624;2023-06-26T09:05:11;23.60;99.90
62555;DHT22;48610;52.144;8.624;2023-06-26T09:08:12;23.70;99.90
62555;DHT22;48610;52.144;8.624;2023-06-26T09:11:13;23.40;99.90
62555;DHT22;48610;52.144;8.624;2023-06-26T09:14:14;23.30;99.90
62555;DHT22;48610;52.144;8.624;2023-06-26T09:17:15;23.60;99.90
62555;DHT22;48610;52.144;8.624;2023-06-26T09:20:15;23.70;99.90
62555;DHT22;48610;52.144;8.624;2023-06-26T09:23:16;24.10;99.90
62555;DHT22;48610;52.144;8.624;2023-06-26T09:26:17;24.10;99.90
62555;DHT22;48610;52.144;8.624;2023-06-26T09:29:18;24.20;99.90
62555;DHT22;48610;52.144;8.624;2023-06-26T09:32:19;24.00;99.90
62555;DHT22;48610;52.144;8.624;2023-06-26T09:35:20;23.80;99.90
62555;DHT22;48610;52.144;8.624;2023-06-26T09:38:21;23.70;99.90
62555;DHT22;48610;52.144;8.624;2023-06-26T09:41:21;23.80;99.90
62555;DHT22;48610;52.144;8.624;2023-06-26T09:44:22;24.10;99.90
62555;DHT22;48610;52.144;8.624;2023-06-26T09:47:23;24.40;99.90
62555;DHT22;48610;52.144;8.624;2023-06-26T09:50:24;24.30;99.90
62555;DHT22;48610;52.144;8.624;2023-06-26T09:53:27;24.00;99.90
62555;DHT22;48610;52.144;8.624;2023-06-26T09:56:29;24.10;99.90
62555;DHT22;48610;52.144;8.624;2023-06-26T09:59:30;24.10;99.90
62555;DHT22;48610;52.144;8.624;2023-06-26T10:02:30;24.00;99.90
62555;DHT22;48610;52.144;8.624;2023-06-26T10:05:31;24.00;99.90
62555;DHT22;48610;52.144;8.624;2023-06-26T10:08:34;24.10;99.90
62555;DHT22;48610;52.144;8.624;2023-06-26T10:15:02;24.00;99.90
62555;DHT22;48610;52.144;8.624;2023-06-26T10:18:05;23.90;99.90
62555;DHT22;48610;52.144;8.624;2023-06-26T10:21:06;23.90;99.90
62555;DHT22;48610;52.144;8.624;2023-06-26T10:24:09;24.00;99.90
62555;DHT22;48610;52.144;8.624;2023-06-26T10:27:21;24.10;99.90
62555;DHT22;48610;52.144;8.624;2023-06-26T10:30:26;24.10;99.90
62555;DHT22;48610;52.144;8.624;2023-06-26T10:33:29;24.30;99.90
62555;DHT22;48610;52.144;8.624;2023-06-26T10:36:30;24.70;99.90
62555;DHT22;48610;52.144;8.624;2023-06-26T10:39:52;24.90;99.90
62555;DHT22;48610;52.144;8.624;2023-06-26T10:43:08;24.70;99.90
62555;DHT22;48610;52.144;8.624;2023-06-26T10:46:09;24.40;99.90
62555;DHT22;48610;52.144;8.624;2023-06-26T10:49:12;24.20;99.90
62555;DHT22;48610;52.144;8.624;2023-06-26T10:52:13;24.00;99.90
62555;DHT22;48610;52.144;8.624;2023-06-26T10:55:14;23.90;99.90
62555;DHT22;48610;52.144;8.624;2023-06-26T11:01:40;23.90;99.90
62555;DHT22;48610;52.144;8.624;2023-06-26T11:04:51;24.20;99.90
62555;DHT22;48610;52.144;8.624;2023-06-26T11:08:09;24.80;99.90
62555;DHT22;48610;52.144;8.624;2023-06-26T11:11:11;25.00;99.20
62555;DHT22;48610;52.144;8.624;2023-06-26T11:14:12;24.50;97.60
62555;DHT22;48610;52.144;8.624;2023-06-26T11:17:12;24.00;98.40
62555;DHT22;48610;52.144;8.624;2023-06-26T11:20:15;24.20;99.20
62555;DHT22;48610;52.144;8.624;2023-06-26T11:23:22;24.60;98.90
62555;DHT22;48610;52.144;8.624;2023-06-26T11:26:23;25.10;98.10
62555;DHT22;48610;52.144;8.624;2023-06-26T11:29:24;25.40;98.60
62555;DHT22;48610;52.144;8.624;2023-06-26T11:32:26;25.70;95.70
62555;DHT22;48610;52.144;8.624;2023-06-26T11:35:27;26.00;94.30
62555;DHT22;48610;52.144;8.624;2023-06-26T11:38:37;25.60;93.60
62555;DHT22;48610;52.144;8.624;2023-06-26T11:41:39;25.60;93.30
62555;DHT22;48610;52.144;8.624;2023-06-26T11:44:41;25.70;94.70
62555;DHT22;48610;52.144;8.624;2023-06-26T11:47:43;26.10;91.20
62555;DHT22;48610;52.144;8.624;2023-06-26T11:50:43;26.20;90.40
62555;DHT22;48610;52.144;8.624;2023-06-26T11:53:45;26.30;91.30
62555;DHT22;48610;52.144;8.624;2023-06-26T11:56:55;26.70;89.70
62555;DHT22;48610;52.144;8.624;2023-06-26T11:59:57;26.70;89.70
62555;DHT22;48610;52.144;8.624;2023-06-26T12:02:57;26.70;88.60
62555;DHT22;48610;52.144;8.624;2023-06-26T12:05:59;26.50;87.00
62555;DHT22;48610;52.144;8.624;2023-06-26T12:09:02;26.50;86.80
62555;DHT22;48610;52.144;8.624;2023-06-26T12:12:06;26.60;85.40
62555;DHT22;48610;52.144;8.624;2023-06-26T12:15:08;26.60;86.40
62555;DHT22;48610;52.144;8.624;2023-06-26T12:18:09;26.70;85.30
62555;DHT22;48610;52.144;8.624;2023-06-26T12:24:38;27.10;85.10
62555;DHT22;48610;52.144;8.624;2023-06-26T12:27:39;27.00;86.30
62555;DHT22;48610;52.144;8.624;2023-06-26T12:30:39;27.00;87.30
62555;DHT22;48610;52.144;8.624;2023-06-26T12:33:40;27.20;87.40
62555;DHT22;48610;52.144;8.624;2023-06-26T12:36:42;27.20;87.40
62555;DHT22;48610;52.144;8.624;2023-06-26T12:39:47;26.90;86.00
62555;DHT22;48610;52.144;8.624;2023-06-26T12:42:48;26.30;85.70
62555;DHT22;48610;52.144;8.624;2023-06-26T12:45:54;26.10;84.90
62555;DHT22;48610;52.144;8.624;2023-06-26T12:48:55;26.10;86.00
62555;DHT22;48610;52.144;8.624;2023-06-26T12:51:55;26.20;86.30
62555;DHT22;48610;52.144;8.624;2023-06-26T12:54:56;26.40;86.80
62555;DHT22;48610;52.144;8.624;2023-06-26T12:57:57;26.40;86.10
62555;DHT22;48610;52.144;8.624;2023-06-26T13:00:58;26.00;86.00
62555;DHT22;48610;52.144;8.624;2023-06-26T13:03:58;25.70;89.40
62555;DHT22;48610;52.144;8.624;2023-06-26T13:06:59;25.70;85.90
62555;DHT22;48610;52.144;8.624;2023-06-26T13:09:59;25.50;86.70
62555;DHT22;48610;52.144;8.624;2023-06-26T13:13:00;25.40;88.10
62555;DHT22;48610;52.144;8.624;2023-06-26T13:16:01;25.50;89.40
62555;DHT22;48610;52.144;8.624;2023-06-26T13:19:02;25.50;88.50
62555;DHT22;48610;52.144;8.624;2023-06-26T13:22:03;25.30;89.50
62555;DHT22;48610;52.144;8.624;2023-06-26T13:25:04;25.00;89.60
62555;DHT22;48610;52.144;8.624;2023-06-26T13:28:04;25.00;90.00
62555;DHT22;48610;52.144;8.624;2023-06-26T13:31:05;25.40;89.80
62555;DHT22;48610;52.144;8.624;2023-06-26T13:34:05;25.70;89.70
62555;DHT22;48610;52.144;8.624;2023-06-26T13:37:06;25.70;87.70
62555;DHT22;48610;52.144;8.624;2023-06-26T13:40:07;25.50;87.70
62555;DHT22;48610;52.144;8.624;2023-06-26T13:43:08;25.30;89.40
62555;DHT22;48610;52.144;8.624;2023-06-26T13:46:08;25.10;90.10
62555;DHT22;48610;52.144;8.624;2023-06-26T13:49:09;25.10;90.60
62555;DHT22;48610;52.144;8.624;2023-06-26T13:52:10;25.00;91.50
62555;DHT22;48610;52.144;8.624;2023-06-26T13:55:10;25.10;90.90
62555;DHT22;48610;52.144;8.624;2023-06-26T13:58:11;24.80;89.90
62555;DHT22;48610;52.144;8.624;2023-06-26T14:01:13;24.70;90.90
62555;DHT22;48610;52.144;8.624;2023-06-26T14:04:14;24.40;90.80
62555;DHT22;48610;52.144;8.624;2023-06-26T14:07:14;24.30;91.10
62555;DHT22;48610;52.144;8.624;2023-06-26T14:10:15;24.00;91.10
62555;DHT22;48610;52.144;8.624;2023-06-26T14:13:15;24.20;90.80
62555;DHT22;48610;52.144;8.624;2023-06-26T14:16:16;24.60;91.20
62555;DHT22;48610;52.144;8.624;2023-06-26T14:19:18;24.90;91.80
62555;DHT22;48610;52.144;8.624;2023-06-26T14:22:20;25.00;91.20
62555;DHT22;48610;52.144;8.624;2023-06-26T14:25:20;25.10;92.40
62555;DHT22;48610;52.144;8.624;2023-06-26T14:28:21;25.20;90.70
62555;DHT22;48610;52.144;8.624;2023-06-26T14:31:22;24.90;90.30
62555;DHT22;48610;52.144;8.624;2023-06-26T14:34:22;24.70;90.50
62555;DHT22;48610;52.144;8.624;2023-06-26T14:37:25;24.70;91.50
62555;DHT22;48610;52.144;8.624;2023-06-26T14:40:26;24.70;90.70
62555;DHT22;48610;52.144;8.624;2023-06-26T14:43:26;24.70;89.90
62555;DHT22;48610;52.144;8.624;2023-06-26T14:46:27;24.50;89.20
62555;DHT22;48610;52.144;8.624;2023-06-26T14:49:27;24.50;87.10
62555;DHT22;48610;52.144;8.624;2023-06-26T14:52:28;24.40;86.70
62555;DHT22;48610;52.144;8.624;2023-06-26T14:55:28;24.30;85.00
62555;DHT22;48610;52.144;8.624;2023-06-26T14:58:29;24.30;85.70
62555;DHT22;48610;52.144;8.624;2023-06-26T15:01:29;24.10;83.60
62555;DHT22;48610;52.144;8.624;2023-06-26T15:04:32;24.00;83.00
62555;DHT22;48610;52.144;8.624;2023-06-26T15:07:32;24.00;84.50
62555;DHT22;48610;52.144;8.624;2023-06-26T15:10:33;24.40;82.20
62555;DHT22;48610;52.144;8.624;2023-06-26T15:13:34;24.60;82.70
62555;DHT22;48610;52.144;8.624;2023-06-26T15:16:34;24.70;81.90
62555;DHT22;48610;52.144;8.624;2023-06-26T15:19:36;24.50;79.90
62555;DHT22;48610;52.144;8.624;2023-06-26T15:22:36;24.50;82.10
62555;DHT22;48610;52.144;8.624;2023-06-26T15:25:37;24.60;83.20
62555;DHT22;48610;52.144;8.624;2023-06-26T15:28:38;24.60;82.60
62555;DHT22;48610;52.144;8.624;2023-06-26T15:31:38;24.50;80.80
62555;DHT22;48610;52.144;8.624;2023-06-26T15:34:39;24.60;80.80
62555;DHT22;48610;52.144;8.624;2023-06-26T15:37:39;24.50;80.50
62555;DHT22;48610;52.144;8.624;2023-06-26T15:40:40;24.40;81.30
62555;DHT22;48610;52.144;8.624;2023-06-26T15:43:40;24.20;81.50
62555;DHT22;48610;52.144;8.624;2023-06-26T15:46:43;24.20;80.90
62555;DHT22;48610;52.144;8.624;2023-06-26T15:49:44;24.10;80.10
62555;DHT22;48610;52.144;8.624;2023-06-26T15:52:45;24.00;81.50
62555;DHT22;48610;52.144;8.624;2023-06-26T15:55:46;24.00;81.50
62555;DHT22;48610;52.144;8.624;2023-06-26T15:58:47;24.00;83.10
62555;DHT22;48610;52.144;8.624;2023-06-26T16:01:49;24.20;80.00
62555;DHT22;48610;52.144;8.624;2023-06-26T16:04:51;24.10;80.80
62555;DHT22;48610;52.144;8.624;2023-06-26T16:07:51;23.90;81.60
62555;DHT22;48610;52.144;8.624;2023-06-26T16:10:53;23.80;80.70
62555;DHT22;48610;52.144;8.624;2023-06-26T16:13:53;23.60;81.80
62555;DHT22;48610;52.144;8.624;2023-06-26T16:16:55;23.50;80.80
62555;DHT22;48610;52.144;8.624;2023-06-26T16:19:55;23.30;81.30
62555;DHT22;48610;52.144;8.624;2023-06-26T16:22:56;23.30;83.10
62555;DHT22;48610;52.144;8.624;2023-06-26T16:25:56;23.10;82.00
62555;DHT22;48610;52.144;8.624;2023-06-26T16:28:57;23.10;82.80
62555;DHT22;48610;52.144;8.624;2023-06-26T16:32:00;23.20;80.60
62555;DHT22;48610;52.144;8.624;2023-06-26T16:35:01;23.20;82.20
62555;DHT22;48610;52.144;8.624;2023-06-26T16:38:02;23.20;82.90
62555;DHT22;48610;52.144;8.624;2023-06-26T16:41:03;23.10;82.40
62555;DHT22;48610;52.144;8.624;2023-06-26T16:44:03;23.30;83.40
62555;DHT22;48610;52.144;8.624;2023-06-26T16:47:04;23.30;79.90
62555;DHT22;48610;52.144;8.624;2023-06-26T16:50:05;23.10;79.70
62555;DHT22;48610;52.144;8.624;2023-06-26T16:53:06;23.00;79.30
62555;DHT22;48610;52.144;8.624;2023-06-26T16:56:07;22.90;79.70
62555;DHT22;48610;52.144;8.624;2023-06-26T16:59:07;22.70;79.50
62555;DHT22;48610;52.144;8.624;2023-06-26T17:02:08;22.60;80.20
62555;DHT22;48610;52.144;8.624;2023-06-26T17:05:09;22.50;81.60
62555;DHT22;48610;52.144;8.624;2023-06-26T17:08:10;22.60;82.40
62555;DHT22;48610;52.144;8.624;2023-06-26T17:11:11;22.60;82.30
62555;DHT22;48610;52.144;8.624;2023-06-26T17:14:11;22.60;84.30
62555;DHT22;48610;52.144;8.624;2023-06-26T17:17:12;22.70;84.80
62555;DHT22;48610;52.144;8.624;2023-06-26T17:20:17;22.60;84.70
62555;DHT22;48610;52.144;8.624;2023-06-26T17:23:19;22.60;84.30
62555;DHT22;48610;52.144;8.624;2023-06-26T17:26:20;22.40;84.60
62555;DHT22;48610;52.144;8.624;2023-06-26T17:29:21;22.30;84.40
62555;DHT22;48610;52.144;8.624;2023-06-26T17:32:21;22.30;83.60
62555;DHT22;48610;52.144;8.624;2023-06-26T17:35:22;22.20;84.30
62555;DHT22;48610;52.144;8.624;2023-06-26T17:38:23;22.10;84.40
62555;DHT22;48610;52.144;8.624;2023-06-26T17:41:23;22.10;84.60
62555;DHT22;48610;52.144;8.624;2023-06-26T17:44:24;22.10;84.80
62555;DHT22;48610;52.144;8.624;2023-06-26T17:47:28;22.30;83.90
62555;DHT22;48610;52.144;8.624;2023-06-26T17:50:29;22.30;84.00
62555;DHT22;48610;52.144;8.624;2023-06-26T17:53:30;22.20;84.20
62555;DHT22;48610;52.144;8.624;2023-06-26T17:56:31;22.20;85.00
62555;DHT22;48610;52.144;8.624;2023-06-26T17:59:31;22.20;84.10
62555;DHT22;48610;52.144;8.624;2023-06-26T18:02:32;22.30;84.00
62555;DHT22;48610;52.144;8.624;2023-06-26T18:05:32;22.00;84.80
62555;DHT22;48610;52.144;8.624;2023-06-26T18:08:33;22.10;85.20
62555;DHT22;48610;52.144;8.624;2023-06-26T18:11:35;22.30;83.70
62555;DHT22;48610;52.144;8.624;2023-06-26T18:14:35;22.10;84.90
62555;DHT22;48610;52.144;8.624;2023-06-26T18:17:36;22.10;84.50
62555;DHT22;48610;52.144;8.624;2023-06-26T18:20:37;22.10;83.60
62555;DHT22;48610;52.144;8.624;2023-06-26T18:23:37;21.90;82.70
62555;DHT22;48610;52.144;8.624;2023-06-26T18:26:38;22.00;83.30
62555;DHT22;48610;52.144;8.624;2023-06-26T18:29:38;21.80;82.80
62555;DHT22;48610;52.144;8.624;2023-06-26T18:32:39;21.80;83.40
62555;DHT22;48610;52.144;8.624;2023-06-26T18:35:40;21.60;84.40
62555;DHT22;48610;52.144;8.624;2023-06-26T18:38:42;21.50;85.00
62555;DHT22;48610;52.144;8.624;2023-06-26T18:41:43;21.40;85.40
62555;DHT22;48610;52.144;8.624;2023-06-26T18:44:43;21.30;85.80
62555;DHT22;48610;52.144;8.624;2023-06-26T18:47:44;21.10;86.30
62555;DHT22;48610;52.144;8.624;2023-06-26T18:50:44;21.20;86.60
62555;DHT22;48610;52.144;8.624;2023-06-26T18:53:45;21.30;86.90
62555;DHT22;48610;52.144;8.624;2023-06-26T18:56:48;21.20;87.40
62555;DHT22;48610;52.144;8.624;2023-06-26T18:59:49;21.10;86.40
62555;DHT22;48610;52.144;8.624;2023-06-26T19:02:49;21.00;86.80
62555;DHT22;48610;52.144;8.624;2023-06-26T19:05:50;20.90;86.80
62555;DHT22;48610;52.144;8.624;2023-06-26T19:08:51;20.90;87.40
62555;DHT22;48610;52.144;8.624;2023-06-26T19:11:52;20.80;87.30
62555;DHT22;48610;52.144;8.624;2023-06-26T19:14:52;20.70;88.10
62555;DHT22;48610;52.144;8.624;2023-06-26T19:17:53;20.70;86.60
62555;DHT22;48610;52.144;8.624;2023-06-26T19:20:54;20.80;85.90
62555;DHT22;48610;52.144;8.624;2023-06-26T19:23:54;20.60;86.30